Latest Weather Observations for Cape Naturaliste

IDW60801

Issued at 5:03 am WST Monday 21 August 2017 (issued every 30 minutes, with the page automatically refreshed every 10 minutes)

About weather observations | Map of weather stations | Latest weather observations for WA | Other Formats
Station Details ID: 009519 Name: CAPE NATURALISTE Lat: -33.54 Lon: 115.02 Height: 109.0 m
Data from the previous 72 hours. | See also: Recent months at Cape Naturaliste
Date/Time
WST
Temp
°C
App
Temp
°C
Dew
Point
°C
Rel
Hum
%
Delta-T
°C
Wind Press
QNH
hPa
Press
MSL
hPa
Rain since
9am
mm
Dir  Spd
km/h
Gust
km/h
Spd
kts
Gust
kts
21/05:00am 11.8 6.6 7.1 73 2.3 W 24 33 13 18 1020.9 1020.9 2.0
21/04:30am 12.2 7.0 7.1 71 2.5 W 24 32 13 17 1020.8 1020.8 2.0
21/04:00am 12.1 5.7 6.8 70 2.5 W 30 39 16 21 1020.9 1020.9 2.0
21/03:30am 11.7 5.8 7.6 76 2.0 W 28 39 15 21 1021.0 1021.0 2.0
21/03:00am 11.6 5.6 8.5 81 1.5 W 30 39 16 21 1021.2 1021.2 2.0
21/02:30am 11.4 5.5 9.1 86 1.2 WSW 30 39 16 21 1021.4 1021.4 2.0
21/02:00am 11.0 5.5 9.1 88 0.9 WSW 28 35 15 19 1021.6 1021.6 2.0
21/01:30am 11.2 7.3 9.5 89 0.9 W 20 30 11 16 1021.6 1021.6 2.0
21/01:00am 10.7 7.2 8.8 88 0.9 W 17 24 9 13 1021.8 1021.8 2.0
21/12:30am 11.0 5.5 9.1 88 1.0 W 28 35 15 19 1022.0 1022.0 1.8
21/12:00am 11.1 6.1 9.4 89 0.9 WSW 26 32 14 17 1022.1 1022.1 1.8
 
Date/Time
WST
Temp
°C
App
Temp
°C
Dew
Point
°C
Rel
Hum
%
Delta-T
°C
Wind Press
QNH
hPa
Press
MSL
hPa
Rain since
9am
mm
Dir  Spd
km/h
Gust
km/h
Spd
kts
Gust
kts
20/11:30pm 11.0 6.6 9.1 88 1.0 WSW 22 30 12 16 1022.3 1022.3 1.8
20/11:00pm 10.6 8.6 8.5 87 1.0 W 9 11 5 6 1022.7 1022.7 1.8
20/10:30pm 11.4 7.1 9.3 87 1.1 WSW 22 30 12 16 1022.9 1022.9 1.2
20/10:00pm 10.9 6.8 8.7 86 1.1 W 20 28 11 15 1023.0 1023.0 1.2
20/09:30pm 11.0 8.2 8.6 85 1.2 W 13 17 7 9 1023.2 1023.2 1.2
20/09:00pm 11.8 7.3 8.6 81 1.6 WSW 22 33 12 18 1023.1 1023.1 1.0
20/08:30pm 11.6 7.9 8.1 79 1.7 WSW 17 24 9 13 1023.1 1023.1 1.0
20/08:00pm 11.0 7.6 7.5 79 1.7 WSW 15 19 8 10 1023.1 1023.1 1.0
20/07:30pm 11.1 7.4 7.8 80 1.6 WSW 17 22 9 12 1023.1 1023.1 1.0
20/07:00pm 10.9 6.5 7.6 80 1.6 WSW 20 26 11 14 1023.0 1023.0 1.0
20/06:30pm 11.0 6.7 7.7 80 1.6 WSW 20 28 11 15 1022.8 1022.8 1.0
20/06:00pm 11.1 6.5 8.0 81 1.5 WSW 22 28 12 15 1022.8 1022.8 1.0
20/05:30pm 11.8 7.4 9.0 83 1.4 WSW 22 28 12 15 1022.7 1022.7 1.0
20/05:00pm 12.0 8.2 9.7 86 1.2 WSW 20 30 11 16 1022.6 1022.6 1.0
20/04:30pm 12.3 10.0 10.4 88 1.0 SSW 13 19 7 10 1022.7 1022.7 1.0
20/04:00pm 12.2 9.9 10.3 88 1.0 SSW 13 17 7 9 1022.8 1022.8 1.0
20/03:30pm 11.9 9.0 9.8 87 1.1 SW 15 24 8 13 1022.9 1022.9 0.8
20/03:00pm 12.4 8.9 10.3 87 1.1 SSW 19 24 10 13 1023.0 1023.0 0.8
20/02:30pm 13.0 10.3 10.5 85 1.3 SW 15 20 8 11 1023.2 1023.2 0.6
20/02:00pm 13.4 10.3 10.2 81 1.7 SW 17 22 9 12 1023.3 1023.3 0.0
20/01:30pm 12.8 9.4 9.1 78 1.9 SW 17 24 9 13 1023.5 1023.5 0.0
20/01:00pm 15.9 12.9 10.7 71 2.8 SW 17 22 9 12 1023.8 1023.8 0.0
20/12:30pm 14.6 10.3 9.4 71 2.7 SW 22 33 12 18 1024.3 1024.3 0.0
20/12:00pm 14.1 10.3 9.1 72 2.5 SW 19 26 10 14 1024.9 1024.9 0.0
20/11:30am 16.0 11.6 10.3 69 3.0 S 24 32 13 17 1025.2 1025.2 0.0
20/11:00am 13.0 9.7 7.9 71 2.5 SSW 15 22 8 12 1025.3 1025.3 0.0
20/10:30am 14.8 10.6 7.4 61 3.7 SSW 19 28 10 15 1025.4 1025.4 0.0
20/10:00am 14.1 9.6 6.2 59 3.8 SSW 19 26 10 14 1025.2 1025.2 0.0
20/09:30am 14.4 10.5 7.0 61 3.6 S 17 24 9 13 1025.2 1025.2 0.0
20/09:00am 12.9 9.4 7.1 68 2.8 S 15 19 8 10 1025.3 1025.3 8.0
20/08:30am 11.8 9.0 7.1 73 2.3 SSE 11 15 6 8 1025.1 1025.1 8.0
20/08:00am 11.2 7.9 6.3 72 2.3 SSE 13 19 7 10 1024.8 1024.8 8.0
20/07:30am 10.8 7.0 5.8 71 2.3 S 15 20 8 11 1024.5 1024.5 8.0
20/07:00am 10.6 6.0 5.6 71 2.3 S 19 24 10 13 1024.1 1024.1 8.0
20/06:30am 10.7 6.5 5.9 72 2.2 S 17 24 9 13 1023.9 1023.9 8.0
20/06:00am 10.8 6.6 5.8 71 2.3 S 17 20 9 11 1023.7 1023.7 8.0
20/05:30am 10.8 6.0 5.6 70 2.4 S 20 28 11 15 1023.4 1023.4 8.0
20/05:00am 10.8 6.1 6.0 72 2.2 S 20 26 11 14 1023.3 1023.3 8.0
20/04:30am 10.9 6.3 5.4 69 2.5 S 19 26 10 14 1023.2 1023.2 8.0
20/04:00am 11.3 5.8 5.8 69 2.6 SSW 24 41 13 22 1022.9 1022.9 8.0
20/03:30am 11.5 5.7 6.4 71 2.4 S 26 37 14 20 1022.7 1022.7 8.0
20/03:00am 11.4 6.3 6.1 70 2.5 SSW 22 35 12 19 1022.6 1022.6 8.0
20/02:49am 11.5 4.9 6.0 69 2.6 SSW 30 48 16 26 1022.6 1022.6 8.0
20/02:30am 11.5 5.7 6.4 71 2.4 SSW 26 37 14 20 1022.5 1022.5 8.0
20/02:00am 11.4 4.4 5.9 69 2.6 SSW 32 43 17 23 1022.6 1022.6 8.0
20/01:55am 11.5 4.2 5.6 67 2.7 SSW 33 52 18 28 1022.6 1022.6 8.0
20/01:30am 11.6 4.5 6.3 70 2.5 SSW 33 46 18 25 1022.5 1022.5 8.0
20/01:00am 11.7 4.1 5.6 66 2.8 SSW 35 50 19 27 1022.3 1022.3 8.0
20/12:43am 11.7 4.2 6.4 70 2.5 SSW 35 54 19 29 1022.0 1022.0 8.0
20/12:30am 11.5 4.8 5.8 68 2.7 SSW 30 39 16 21 1022.2 1022.2 8.0
20/12:27am 11.4 4.7 5.5 67 2.7 S 30 48 16 26 1022.2 1022.2 8.0
20/12:00am 11.5 4.0 6.2 70 2.5 SSW 35 46 19 25 1022.0 1022.0 8.0
 
Date/Time
WST
Temp
°C
App
Temp
°C
Dew
Point
°C
Rel
Hum
%
Delta-T
°C
Wind Press
QNH
hPa
Press
MSL
hPa
Rain since
9am
mm
Dir  Spd
km/h
Gust
km/h
Spd
kts
Gust
kts
19/11:30pm 11.4 5.0 6.9 74 2.2 S 30 41 16 22 1022.2 1022.2 8.0
19/11:00pm 11.0 5.1 7.3 78 1.8 S 28 43 15 23 1022.1 1022.1 8.0
19/10:32pm 11.4 4.3 8.1 80 1.6 SSW 35 54 19 29 1022.0 1022.0 8.0
19/10:30pm 11.4 3.6 8.1 80 1.6 SSW 39 54 21 29 1021.9 1021.9 8.0
19/10:20pm 11.4 4.9 8.1 80 1.6 S 32 50 17 27 1021.7 1021.7 8.0
19/10:00pm 11.0 3.9 8.1 82 1.4 S 35 48 19 26 1021.8 1021.8 8.0
19/09:30pm 11.5 4.1 8.2 80 1.6 S 37 54 20 29 1021.5 1021.5 8.0
19/09:00pm 11.2 4.0 7.7 79 1.7 S 35 54 19 29 1021.4 1021.4 8.0
19/08:30pm 11.6 3.1 8.5 81 1.5 SSW 43 61 23 33 1020.7 1020.7 8.0
19/08:06pm 11.4 2.3 8.4 82 1.5 SSW 46 65 25 35 1020.5 1020.5 8.0
19/08:00pm 11.2 1.7 8.4 83 1.4 SSW 48 61 26 33 1020.2 1020.2 8.0
19/07:34pm 11.1 2.8 9.2 88 1.0 SSW 43 61 23 33 1020.0 1019.9 8.0
19/07:30pm 10.7 2.0 8.6 87 1.0 SSW 44 61 24 33 1019.9 1019.8 8.0
19/07:10pm 10.8 3.6 9.1 89 0.8 SSW 37 59 20 32 1019.6 1019.5 7.8
19/07:00pm 11.4 4.3 9.7 89 0.9 SSW 37 52 20 28 1019.6 1019.5 7.8
19/06:43pm 11.1 4.0 9.4 89 0.9 SSW 37 56 20 30 1019.2 1019.1 7.8
19/06:30pm 11.0 3.1 9.4 90 0.8 SSW 41 57 22 31 1019.0 1018.9 7.8
19/06:07pm 11.0 3.5 9.4 90 0.8 S 39 57 21 31 1018.5 1018.5 7.6
19/06:00pm 10.9 4.1 9.3 90 0.8 S 35 50 19 27 1018.6 1018.6 7.6
19/05:30pm 10.9 4.1 9.3 90 0.8 S 35 48 19 26 1018.0 1018.0 7.4
19/05:00pm 11.1 4.3 9.4 89 0.9 SSW 35 50 19 27 1017.5 1017.5 7.0
19/04:42pm 11.6 3.8 9.9 89 0.9 SSW 41 59 22 32 1017.0 1017.0 6.8
19/04:30pm 11.4 3.1 9.5 88 1.0 SSW 43 59 23 32 1016.9 1016.9 6.8
19/04:01pm 12.0 5.0 9.9 87 1.1 SSW 37 56 20 30 1016.5 1016.5 6.8
19/04:00pm 12.1 5.1 10.0 87 1.1 SSW 37 54 20 29 1016.5 1016.5 6.8
19/03:30pm 11.6 3.7 9.3 86 1.2 S 41 61 22 33 1016.2 1016.2 6.8
19/03:05pm 12.6 6.2 10.8 89 0.9 SSW 35 54 19 29 1016.1 1016.1 6.8
19/03:00pm 12.2 6.1 10.4 89 0.9 SSW 33 50 18 27 1016.1 1016.1 6.8
19/02:30pm 11.4 5.0 9.5 88 1.0 S 33 44 18 24 1015.9 1015.9 6.6
19/02:00pm 11.4 4.7 9.7 89 0.9 S 35 46 19 25 1015.9 1015.9 6.6
19/01:30pm 10.1 3.4 8.0 87 1.0 SSW 33 46 18 25 1016.1 1016.1 5.4
19/01:07pm 13.1 7.3 9.5 79 1.8 SSW 30 48 16 26 1016.0 1016.0 2.0
19/01:00pm 13.2 8.3 10.0 81 1.7 SSW 26 35 14 19 1015.9 1015.9 1.8
19/12:35pm 13.0 6.9 6.8 66 3.0 SSW 28 50 15 27 1015.9 1015.9 1.4
19/12:30pm 16.1 11.0 9.1 63 3.6 S 26 35 14 19 1015.9 1015.9 0.8
19/12:00pm 14.1 10.2 8.7 70 2.7 SSE 19 30 10 16 1016.0 1016.0 0.8
19/11:30am 14.3 10.8 8.7 69 2.8 S 17 26 9 14 1016.0 1016.0 0.8
19/11:00am 13.4 10.1 9.6 78 2.0 S 17 24 9 13 1016.1 1016.1 0.8
19/10:30am 12.1 7.8 9.3 83 1.4 S 22 30 12 16 1015.9 1015.9 0.8
19/10:00am 12.0 8.3 10.1 88 1.0 SSE 20 30 11 16 1015.5 1015.5 0.8
19/09:30am 10.4 6.2 8.3 87 1.0 S 20 30 11 16 1015.8 1015.8 0.8
19/09:04am 10.9 4.5 8.5 85 1.2 SW 32 50 17 27 1015.6 1015.6 0.0
19/09:00am 11.3 5.7 8.9 85 1.2 SW 28 43 15 23 1015.5 1015.5 6.0
19/08:50am 11.5 7.7 8.9 84 1.3 WSW 19 32 10 17 1015.6 1015.6 6.0
19/08:30am 13.0 11.5 10.7 86 1.2 SSW 9 13 5 7 1015.5 1015.5 5.6
19/08:00am 11.6 10.2 9.5 87 1.1 ESE 7 9 4 5 1015.2 1015.2 5.6
19/07:30am 9.5 6.8 7.3 86 1.0 S 11 13 6 7 1015.0 1015.0 5.6
19/07:00am 9.2 5.7 7.0 86 1.0 S 15 17 8 9 1014.5 1014.5 5.6
19/06:30am 10.0 6.6 7.8 86 1.1 S 15 20 8 11 1014.4 1014.4 5.6
19/06:00am 10.2 7.7 8.1 87 1.0 SSW 11 20 6 11 1014.0 1014.0 5.6
19/05:30am 9.8 7.2 7.7 87 1.0 SSE 11 13 6 7 1013.8 1013.8 5.6
19/05:00am 9.7 7.8 7.6 87 1.0 ENE 7 9 4 5 1013.7 1013.7 5.6
19/04:30am 10.0 7.8 7.9 87 1.0 ENE 9 11 5 6 1013.7 1013.7 5.6
19/04:00am 9.5 7.2 7.4 87 1.0 ENE 9 9 5 5 1013.5 1013.5 5.6
19/03:30am 9.6 7.7 7.5 87 1.0 ENE 7 9 4 5 1013.7 1013.7 5.6
19/03:00am 9.8 7.6 7.9 88 0.9 ENE 9 9 5 5 1013.8 1013.8 5.6
19/02:30am 9.4 7.1 7.5 88 0.9 ENE 9 9 5 5 1013.7 1013.7 5.6
19/02:00am 10.3 8.3 8.6 89 0.8 NNE 9 13 5 7 1014.1 1014.1 5.6
19/01:30am 10.7 9.7 9.0 89 0.8 ESE 4 9 2 5 1014.2 1014.2 3.8
19/01:00am 10.3 8.3 8.6 89 0.8 SE 9 9 5 5 1014.2 1014.2 3.6
19/12:30am 10.2 7.8 8.5 89 0.8 SE 11 11 6 6 1014.3 1014.3 3.6
19/12:00am 10.6 7.9 8.9 89 0.8 SE 13 17 7 9 1014.3 1014.3 3.6
 
Date/Time
WST
Temp
°C
App
Temp
°C
Dew
Point
°C
Rel
Hum
%
Delta-T
°C
Wind Press
QNH
hPa
Press
MSL
hPa
Rain since
9am
mm
Dir  Spd
km/h
Gust
km/h
Spd
kts
Gust
kts
18/11:30pm 10.4 7.3 8.7 89 0.8 ESE 15 17 8 9 1014.5 1014.5 3.6
18/11:00pm 10.4 8.0 8.5 88 0.9 ESE 11 13 6 7 1014.9 1014.9 3.6
18/10:30pm 10.7 7.9 8.6 87 1.0 ENE 13 26 7 14 1014.9 1014.9 3.4
18/10:00pm 11.2 9.3 9.1 87 1.1 S 9 15 5 8 1015.1 1015.1 2.2
18/09:30pm 11.5 8.2 9.4 87 1.1 WSW 17 20 9 11 1014.9 1014.9 2.0
18/09:00pm 11.5 7.1 8.9 84 1.3 W 22 32 12 17 1014.9 1014.9 2.0
18/08:30pm 12.7 8.6 8.8 77 2.0 WNW 20 32 11 17 1014.9 1014.9 0.6
18/08:00pm 12.3 9.6 9.0 80 1.7 NNW 13 20 7 11 1014.7 1014.7 0.6
18/07:30pm 12.9 9.3 8.2 73 2.3 NNW 17 22 9 12 1014.4 1014.4 0.4
18/07:00pm 12.9 9.7 8.4 74 2.2 NNW 15 20 8 11 1014.4 1014.4 0.4
18/06:30pm 12.4 9.6 8.7 78 1.9 N 13 20 7 11 1014.0 1014.0 0.4
18/06:00pm 12.4 8.8 8.5 77 1.9 NW 17 24 9 13 1014.0 1014.0 0.4
18/05:30pm 13.7 9.5 8.3 70 2.7 WNW 20 30 11 16 1013.6 1013.6 0.4
18/05:00pm 13.8 8.3 7.6 66 3.1 WNW 26 33 14 18 1013.5 1013.5 0.4
18/04:30pm 13.9 7.2 7.4 65 3.2 WNW 32 43 17 23 1013.3 1013.3 0.4
18/04:00pm 14.8 7.1 7.1 60 3.8 WNW 37 50 20 27 1012.9 1012.9 0.4
18/03:53pm 14.7 8.7 7.0 60 3.8 WNW 28 48 15 26 1012.9 1012.9 0.4
18/03:30pm 16.0 11.2 9.0 63 3.6 NW 24 33 13 18 1013.1 1013.1 0.4
18/03:00pm 15.4 9.9 9.3 67 3.2 W 28 37 15 20 1013.3 1013.3 0.4
18/02:30pm 14.7 7.1 9.1 69 2.9 WSW 39 50 21 27 1013.2 1013.2 0.4
18/02:18pm 13.9 5.5 8.9 72 2.5 WSW 43 61 23 33 1013.2 1013.2 0.4
18/02:15pm 14.1 5.7 9.5 74 2.4 W 44 61 24 33 1013.2 1013.2 0.4
18/02:01pm 15.6 8.9 9.5 67 3.2 WNW 35 67 19 36 1013.0 1013.0 0.4
18/02:00pm 16.1 9.8 9.8 66 3.3 WNW 33 44 18 24 1013.1 1013.1 0.4
18/01:30pm 16.8 11.0 10.9 68 3.2 WNW 32 41 17 22 1013.2 1013.2 0.4
18/01:00pm 17.0 12.3 10.8 67 3.3 NW 26 37 14 20 1013.5 1013.5 0.4
18/12:30pm 17.5 11.8 9.9 61 4.0 NW 30 39 16 21 1013.8 1013.8 0.4
18/12:00pm 16.4 10.4 10.0 66 3.4 NW 32 41 17 22 1014.2 1014.2 0.4
18/11:30am 16.6 11.6 11.1 70 3.0 NW 28 35 15 19 1014.5 1014.5 0.4
18/11:00am 13.8 8.4 9.5 75 2.2 NW 28 37 15 20 1014.9 1014.9 0.4
18/10:30am 13.2 7.3 10.6 84 1.4 NW 32 43 17 23 1015.2 1015.2 0.4
18/10:00am 12.6 7.1 10.5 87 1.1 NW 30 44 16 24 1015.3 1015.3 0.2
18/09:30am 13.2 9.0 11.1 87 1.1 NW 24 32 13 17 1015.4 1015.4 0.2
18/09:00am 12.7 8.0 10.6 87 1.1 WNW 26 33 14 18 1015.4 1015.4 4.4
18/08:30am 13.0 6.3 9.6 80 1.7 WNW 35 46 19 25 1015.0 1015.0 3.4
18/08:00am 14.0 7.9 9.6 75 2.3 NW 32 43 17 23 1014.7 1014.7 3.0
18/07:30am 13.8 7.6 9.3 74 2.3 NW 32 41 17 22 1014.4 1014.4 3.0
18/07:00am 13.6 6.2 9.8 78 2.0 NW 39 48 21 26 1014.1 1014.1 3.0
18/06:30am 13.1 8.4 10.8 86 1.2 NNW 26 39 14 21 1013.9 1013.9 3.0
18/06:00am 12.8 5.9 10.2 84 1.3 NNW 37 54 20 29 1013.9 1013.9 2.8
18/05:49am 13.7 8.2 10.7 82 1.6 NNW 30 50 16 27 1013.7 1013.7 2.8
18/05:30am 12.9 6.8 9.9 82 1.5 NW 32 41 17 22 1013.6 1013.6 2.8

Other Formats:

Comma delimited format used in spreadsheet applications
http://www.bom.gov.au/fwo/IDW60801/IDW60801.94600.axf

JavaScript Object Notation format (JSON) in row-major order
http://www.bom.gov.au/fwo/IDW60801/IDW60801.94600.json